![]() |
EMODnet Physics ERDDAP
Easier access to scientific data |
log in|
Brought to you by EMODnet Physics |
| Dataset Title: | NDBC - Collection of dew point temperature (DEWT) TimeSeries - IN SITU MultiPointTimeSeriesObservation
|
| Institution: | NDBC (Dataset ID: TS_DEWT_NDBC) |
| Information: | Summary
| License
| FGDC
| ISO 19115
| Metadata
| Background
| Subset
| Data Access Form
| Make a graph
|
| Name | Last modified | Size | Description | |
|---|---|---|---|---|
| Parent Directory | - | - | ||
| FTGM4_TS_DEWT_012005.nc | 30-Nov-2024 17:57 | 1828305 | ||
| FTGM4_TS_DEWT_012006.nc | 30-Nov-2024 18:59 | 1660984 | ||
| FTGM4_TS_DEWT_012007.nc | 30-Nov-2024 20:02 | 1655413 | ||
| FTGM4_TS_DEWT_012008.nc | 30-Nov-2024 21:07 | 1655222 | ||
| FTGM4_TS_DEWT_012009.nc | 30-Nov-2024 22:14 | 1816315 | ||
| FTGM4_TS_DEWT_012010.nc | 30-Nov-2024 23:19 | 1824702 | ||
| FTGM4_TS_DEWT_012011.nc | 01-Dec-2024 00:21 | 1816160 | ||
| FTGM4_TS_DEWT_012012.nc | 01-Dec-2024 01:11 | 1661215 | ||
| FTGM4_TS_DEWT_012013.nc | 01-Dec-2024 02:11 | 1673948 | ||
| FTGM4_TS_DEWT_012014.nc | 01-Dec-2024 03:12 | 1298956 | ||
| FTGM4_TS_DEWT_012015.nc | 01-Dec-2024 03:59 | 1788667 | ||
| FTGM4_TS_DEWT_012016.nc | 01-Dec-2024 04:45 | 1832463 | ||
| FTGM4_TS_DEWT_012017.nc | 01-Dec-2024 05:33 | 1664537 | ||
| FTGM4_TS_DEWT_012018.nc | 01-Dec-2024 06:17 | 1634258 | ||
| FTGM4_TS_DEWT_012019.nc | 01-Dec-2024 06:52 | 1678271 | ||
| FTGM4_TS_DEWT_012020.nc | 01-Dec-2024 07:42 | 1113092 | ||
| FTGM4_TS_DEWT_012021.nc | 01-Dec-2024 08:28 | 1647215 | ||
| FTGM4_TS_DEWT_012023.nc | 01-Dec-2024 08:54 | 1826099 | ||
| FTGM4_TS_DEWT_012025.nc | 07-Feb-2025 12:15 | 1672341 | ||
| FTGM4_TS_DEWT_012026.nc | 02-Feb-2026 18:36 | 1820390 | ||
| FTGM4_TS_DEWT_022005.nc | 30-Nov-2024 18:02 | 1325114 | ||
| FTGM4_TS_DEWT_022006.nc | 30-Nov-2024 19:04 | 1667048 | ||
| FTGM4_TS_DEWT_022007.nc | 30-Nov-2024 20:08 | 1662653 | ||
| FTGM4_TS_DEWT_022008.nc | 30-Nov-2024 21:13 | 1302038 | ||
| FTGM4_TS_DEWT_022009.nc | 30-Nov-2024 22:19 | 1829321 | ||
| FTGM4_TS_DEWT_022010.nc | 30-Nov-2024 23:25 | 1673106 | ||
| FTGM4_TS_DEWT_022011.nc | 01-Dec-2024 00:25 | 1829992 | ||
| FTGM4_TS_DEWT_022012.nc | 01-Dec-2024 01:15 | 1538870 | ||
| FTGM4_TS_DEWT_022013.nc | 01-Dec-2024 02:16 | 1651335 | ||
| FTGM4_TS_DEWT_022014.nc | 01-Dec-2024 03:17 | 1658584 | ||
| FTGM4_TS_DEWT_022015.nc | 01-Dec-2024 04:02 | 1807164 | ||
| FTGM4_TS_DEWT_022016.nc | 01-Dec-2024 04:49 | 1823875 | ||
| FTGM4_TS_DEWT_022017.nc | 01-Dec-2024 05:38 | 1829624 | ||
| FTGM4_TS_DEWT_022018.nc | 01-Dec-2024 06:19 | 418875 | ||
| FTGM4_TS_DEWT_022019.nc | 01-Dec-2024 06:55 | 4103572 | ||
| FTGM4_TS_DEWT_022020.nc | 01-Dec-2024 07:46 | 3634755 | ||
| FTGM4_TS_DEWT_022021.nc | 01-Dec-2024 08:31 | 879120 | ||
| FTGM4_TS_DEWT_022023.nc | 01-Dec-2024 08:56 | 4661409 | ||
| FTGM4_TS_DEWT_022025.nc | 01-Mar-2025 06:30 | 4232197 | ||
| FTGM4_TS_DEWT_022026.nc | 01-Mar-2026 08:09 | 3729339 | ||
| FTGM4_TS_DEWT_032005.nc | 30-Nov-2024 18:07 | 4716244 | ||
| FTGM4_TS_DEWT_032006.nc | 30-Nov-2024 19:10 | 5093684 | ||
| FTGM4_TS_DEWT_032007.nc | 30-Nov-2024 20:13 | 5269442 | ||
| FTGM4_TS_DEWT_032008.nc | 30-Nov-2024 21:19 | 1656798 | ||
| FTGM4_TS_DEWT_032009.nc | 30-Nov-2024 22:23 | 2928497 | ||
| FTGM4_TS_DEWT_032010.nc | 30-Nov-2024 23:31 | 1820119 | ||
| FTGM4_TS_DEWT_032011.nc | 01-Dec-2024 00:29 | 1784763 | ||
| FTGM4_TS_DEWT_032012.nc | 01-Dec-2024 01:19 | 1816206 | ||
| FTGM4_TS_DEWT_032013.nc | 01-Dec-2024 02:21 | 3631423 | ||
| FTGM4_TS_DEWT_032014.nc | 01-Dec-2024 03:22 | 1656553 | ||
| FTGM4_TS_DEWT_032015.nc | 01-Dec-2024 04:07 | 4753325 | ||
| FTGM4_TS_DEWT_032016.nc | 01-Dec-2024 04:53 | 1668960 | ||
| FTGM4_TS_DEWT_032017.nc | 01-Dec-2024 05:42 | 1819752 | ||
| FTGM4_TS_DEWT_032018.nc | 01-Dec-2024 06:21 | 5549258 | ||
| FTGM4_TS_DEWT_032019.nc | 01-Dec-2024 06:59 | 1668852 | ||
| FTGM4_TS_DEWT_032020.nc | 01-Dec-2024 07:50 | 1647273 | ||
| FTGM4_TS_DEWT_032023.nc | 01-Dec-2024 08:59 | 5551314 | ||
| FTGM4_TS_DEWT_032025.nc | 02-Apr-2025 05:16 | 1804342 | ||
| FTGM4_TS_DEWT_032026.nc | 24-Mar-2026 07:26 | 5587512 | ||
| FTGM4_TS_DEWT_042005.nc | 30-Nov-2024 18:12 | 5489635 | ||
| FTGM4_TS_DEWT_042006.nc | 30-Nov-2024 19:15 | 430492 | ||
| FTGM4_TS_DEWT_042007.nc | 30-Nov-2024 20:18 | 421804 | ||
| FTGM4_TS_DEWT_042008.nc | 30-Nov-2024 21:25 | 1475546 | ||
| FTGM4_TS_DEWT_042009.nc | 30-Nov-2024 22:28 | 1626414 | ||
| FTGM4_TS_DEWT_042010.nc | 30-Nov-2024 23:37 | 1625145 | ||
| FTGM4_TS_DEWT_042011.nc | 01-Dec-2024 00:33 | 1462157 | ||
| FTGM4_TS_DEWT_042012.nc | 01-Dec-2024 01:25 | 1625806 | ||
| FTGM4_TS_DEWT_042013.nc | 01-Dec-2024 02:25 | 1625800 | ||
| FTGM4_TS_DEWT_042014.nc | 01-Dec-2024 03:25 | 1626813 | ||
| FTGM4_TS_DEWT_042015.nc | 01-Dec-2024 04:11 | 1626320 | ||
| FTGM4_TS_DEWT_042016.nc | 01-Dec-2024 04:57 | 1624696 | ||
| FTGM4_TS_DEWT_042017.nc | 01-Dec-2024 05:46 | 1626211 | ||
| FTGM4_TS_DEWT_042018.nc | 01-Dec-2024 06:24 | 1464909 | ||
| FTGM4_TS_DEWT_042019.nc | 01-Dec-2024 07:04 | 1469590 | ||
| FTGM4_TS_DEWT_042020.nc | 01-Dec-2024 07:54 | 1472479 | ||
| FTGM4_TS_DEWT_042023.nc | 01-Dec-2024 09:02 | 1469315 | ||
| FTGM4_TS_DEWT_042025.nc | 01-May-2025 05:23 | 1468166 | ||
| FTGM4_TS_DEWT_052005.nc | 30-Nov-2024 18:17 | 1460946 | ||
| FTGM4_TS_DEWT_052006.nc | 30-Nov-2024 19:20 | 1473141 | ||
| FTGM4_TS_DEWT_052007.nc | 30-Nov-2024 20:23 | 1468627 | ||
| FTGM4_TS_DEWT_052008.nc | 30-Nov-2024 21:31 | 1469826 | ||
| FTGM4_TS_DEWT_052009.nc | 30-Nov-2024 22:33 | 1469562 | ||
| FTGM4_TS_DEWT_052010.nc | 30-Nov-2024 23:42 | 1472742 | ||
| FTGM4_TS_DEWT_052011.nc | 01-Dec-2024 00:35 | 1143584 | ||
| FTGM4_TS_DEWT_052012.nc | 01-Dec-2024 01:30 | 994972 | ||
| FTGM4_TS_DEWT_052013.nc | 01-Dec-2024 02:31 | 1624217 | ||
| FTGM4_TS_DEWT_052014.nc | 01-Dec-2024 03:29 | 1626526 | ||
| FTGM4_TS_DEWT_052015.nc | 01-Dec-2024 04:15 | 1626195 | ||
| FTGM4_TS_DEWT_052016.nc | 01-Dec-2024 05:00 | 1626694 | ||
| FTGM4_TS_DEWT_052017.nc | 01-Dec-2024 05:50 | 1475983 | ||
| FTGM4_TS_DEWT_052018.nc | 01-Dec-2024 06:26 | 1475932 | ||
| FTGM4_TS_DEWT_052019.nc | 01-Dec-2024 07:09 | 1474735 | ||
| FTGM4_TS_DEWT_052020.nc | 01-Dec-2024 07:58 | 1626623 | ||
| FTGM4_TS_DEWT_052022.nc | 01-Dec-2024 08:34 | 1475371 | ||
| FTGM4_TS_DEWT_052023.nc | 01-Dec-2024 09:05 | 1625710 | ||
| FTGM4_TS_DEWT_052025.nc | 01-Jun-2025 05:23 | 1159219 | ||
| FTGM4_TS_DEWT_062005.nc | 30-Nov-2024 18:23 | 1142768 | ||
| FTGM4_TS_DEWT_062006.nc | 30-Nov-2024 19:25 | 1474203 | ||
| FTGM4_TS_DEWT_062007.nc | 30-Nov-2024 20:27 | 1476400 | ||
| FTGM4_TS_DEWT_062008.nc | 30-Nov-2024 21:36 | 1476281 | ||
| FTGM4_TS_DEWT_062009.nc | 30-Nov-2024 22:40 | 1476097 | ||
| FTGM4_TS_DEWT_062010.nc | 30-Nov-2024 23:47 | 1476357 | ||
| FTGM4_TS_DEWT_062011.nc | 01-Dec-2024 00:39 | 1473514 | ||
| FTGM4_TS_DEWT_062012.nc | 01-Dec-2024 01:36 | 1476142 | ||
| FTGM4_TS_DEWT_062013.nc | 01-Dec-2024 02:36 | 1475306 | ||
| FTGM4_TS_DEWT_062014.nc | 01-Dec-2024 03:32 | 1475531 | ||
| FTGM4_TS_DEWT_062015.nc | 01-Dec-2024 04:18 | 1476411 | ||
| FTGM4_TS_DEWT_062016.nc | 01-Dec-2024 05:04 | 1476956 | ||
| FTGM4_TS_DEWT_062017.nc | 01-Dec-2024 05:53 | 1476343 | ||
| FTGM4_TS_DEWT_062018.nc | 01-Dec-2024 06:27 | 1626495 | ||
| FTGM4_TS_DEWT_062019.nc | 01-Dec-2024 07:12 | 1626707 | ||
| FTGM4_TS_DEWT_062020.nc | 01-Dec-2024 08:01 | 1626310 | ||
| FTGM4_TS_DEWT_062022.nc | 01-Dec-2024 08:37 | 1477429 | ||
| FTGM4_TS_DEWT_062023.nc | 01-Dec-2024 09:07 | 1626928 | ||
| FTGM4_TS_DEWT_062025.nc | 17-Jun-2025 04:31 | 1625192 | ||
| FTGM4_TS_DEWT_072005.nc | 30-Nov-2024 18:28 | 1626735 | ||
| FTGM4_TS_DEWT_072006.nc | 30-Nov-2024 19:31 | 1626528 | ||
| FTGM4_TS_DEWT_072007.nc | 30-Nov-2024 20:34 | 1473407 | ||
| FTGM4_TS_DEWT_072008.nc | 30-Nov-2024 21:41 | 1626523 | ||
| FTGM4_TS_DEWT_072009.nc | 30-Nov-2024 22:46 | 1624523 | ||
| FTGM4_TS_DEWT_072010.nc | 30-Nov-2024 23:52 | 1626768 | ||
| FTGM4_TS_DEWT_072011.nc | 01-Dec-2024 00:44 | 440223 | ||
| FTGM4_TS_DEWT_072012.nc | 01-Dec-2024 01:41 | 1475823 | ||
| FTGM4_TS_DEWT_072013.nc | 01-Dec-2024 02:41 | 914314 | ||
| FTGM4_TS_DEWT_072014.nc | 01-Dec-2024 03:35 | 1476494 | ||
| FTGM4_TS_DEWT_072015.nc | 01-Dec-2024 04:22 | 1475542 | ||
| FTGM4_TS_DEWT_072016.nc | 01-Dec-2024 05:09 | 1477002 | ||
| FTGM4_TS_DEWT_072017.nc | 01-Dec-2024 05:56 | 1473063 | ||
| FTGM4_TS_DEWT_072018.nc | 01-Dec-2024 06:31 | 1476452 | ||
| FTGM4_TS_DEWT_072019.nc | 01-Dec-2024 07:16 | 1474930 | ||
| FTGM4_TS_DEWT_072020.nc | 01-Dec-2024 08:05 | 1474916 | ||
| FTGM4_TS_DEWT_072022.nc | 01-Dec-2024 08:39 | 1476489 | ||
| FTGM4_TS_DEWT_072023.nc | 01-Dec-2024 09:11 | 1476732 | ||
| FTGM4_TS_DEWT_072025.nc | 16-Aug-2025 07:42 | 1476128 | ||
| FTGM4_TS_DEWT_082005.nc | 30-Nov-2024 18:33 | 1626614 | ||
| FTGM4_TS_DEWT_082006.nc | 30-Nov-2024 19:37 | 1625710 | ||
| FTGM4_TS_DEWT_082007.nc | 30-Nov-2024 20:39 | 1626315 | ||
| FTGM4_TS_DEWT_082008.nc | 30-Nov-2024 21:46 | 1626284 | ||
| FTGM4_TS_DEWT_082009.nc | 30-Nov-2024 22:52 | 1625656 | ||
| FTGM4_TS_DEWT_082010.nc | 30-Nov-2024 23:57 | 1626642 | ||
| FTGM4_TS_DEWT_082011.nc | 01-Dec-2024 00:49 | 1625318 | ||
| FTGM4_TS_DEWT_082012.nc | 01-Dec-2024 01:46 | 1477611 | ||
| FTGM4_TS_DEWT_082013.nc | 01-Dec-2024 02:46 | 1475063 | ||
| FTGM4_TS_DEWT_082014.nc | 01-Dec-2024 03:39 | 1625802 | ||
| FTGM4_TS_DEWT_082015.nc | 01-Dec-2024 04:26 | 1625128 | ||
| FTGM4_TS_DEWT_082016.nc | 01-Dec-2024 05:12 | 1626954 | ||
| FTGM4_TS_DEWT_082017.nc | 01-Dec-2024 06:00 | 1626913 | ||
| FTGM4_TS_DEWT_082018.nc | 01-Dec-2024 06:35 | 1467090 | ||
| FTGM4_TS_DEWT_082019.nc | 01-Dec-2024 07:20 | 1626463 | ||
| FTGM4_TS_DEWT_082020.nc | 01-Dec-2024 08:08 | 1626500 | ||
| FTGM4_TS_DEWT_082022.nc | 01-Dec-2024 08:42 | 1626072 | ||
| FTGM4_TS_DEWT_082023.nc | 01-Dec-2024 09:14 | 1625104 | ||
| FTGM4_TS_DEWT_082025.nc | 01-Sep-2025 07:49 | 1626909 | ||
| FTGM4_TS_DEWT_092005.nc | 30-Nov-2024 18:38 | 1626190 | ||
| FTGM4_TS_DEWT_092006.nc | 30-Nov-2024 19:42 | 1468041 | ||
| FTGM4_TS_DEWT_092007.nc | 30-Nov-2024 20:45 | 1626843 | ||
| FTGM4_TS_DEWT_092008.nc | 30-Nov-2024 21:51 | 1475001 | ||
| FTGM4_TS_DEWT_092009.nc | 30-Nov-2024 22:57 | 1460895 | ||
| FTGM4_TS_DEWT_092010.nc | 01-Dec-2024 00:02 | 1626960 | ||
| FTGM4_TS_DEWT_092011.nc | 01-Dec-2024 00:54 | 427585 | ||
| FTGM4_TS_DEWT_092012.nc | 01-Dec-2024 01:50 | 1626627 | ||
| FTGM4_TS_DEWT_092013.nc | 01-Dec-2024 02:51 | 601531 | ||
| FTGM4_TS_DEWT_092014.nc | 01-Dec-2024 03:41 | 438869 | ||
| FTGM4_TS_DEWT_092015.nc | 01-Dec-2024 04:30 | 1476773 | ||
| FTGM4_TS_DEWT_092016.nc | 01-Dec-2024 05:16 | 1476315 | ||
| FTGM4_TS_DEWT_092017.nc | 01-Dec-2024 06:04 | 1475962 | ||
| FTGM4_TS_DEWT_092018.nc | 01-Dec-2024 06:38 | 1476152 | ||
| FTGM4_TS_DEWT_092019.nc | 01-Dec-2024 07:25 | 1477104 | ||
| FTGM4_TS_DEWT_092020.nc | 01-Dec-2024 08:13 | 1461708 | ||
| FTGM4_TS_DEWT_092022.nc | 01-Dec-2024 08:44 | 1477062 | ||
| FTGM4_TS_DEWT_092023.nc | 01-Dec-2024 09:18 | 1472770 | ||
| FTGM4_TS_DEWT_092025.nc | 01-Oct-2025 07:55 | 1475463 | ||
| FTGM4_TS_DEWT_102004.nc | 30-Nov-2024 17:43 | 1477066 | ||
| FTGM4_TS_DEWT_102005.nc | 30-Nov-2024 18:44 | 1477096 | ||
| FTGM4_TS_DEWT_102006.nc | 30-Nov-2024 19:47 | 1476939 | ||
| FTGM4_TS_DEWT_102007.nc | 30-Nov-2024 20:52 | 587744 | ||
| FTGM4_TS_DEWT_102008.nc | 30-Nov-2024 21:56 | 1474215 | ||
| FTGM4_TS_DEWT_102009.nc | 30-Nov-2024 23:02 | 1626409 | ||
| FTGM4_TS_DEWT_102010.nc | 01-Dec-2024 00:06 | 1626212 | ||
| FTGM4_TS_DEWT_102011.nc | 01-Dec-2024 00:59 | 1625936 | ||
| FTGM4_TS_DEWT_102012.nc | 01-Dec-2024 01:55 | 1626947 | ||
| FTGM4_TS_DEWT_102013.nc | 01-Dec-2024 02:56 | 1477650 | ||
| FTGM4_TS_DEWT_102014.nc | 01-Dec-2024 03:45 | 1625972 | ||
| FTGM4_TS_DEWT_102015.nc | 01-Dec-2024 04:33 | 1626604 | ||
| FTGM4_TS_DEWT_102016.nc | 01-Dec-2024 05:20 | 1626033 | ||
| FTGM4_TS_DEWT_102017.nc | 01-Dec-2024 06:06 | 994650 | ||
| FTGM4_TS_DEWT_102018.nc | 01-Dec-2024 06:41 | 433354 | ||
| FTGM4_TS_DEWT_102019.nc | 01-Dec-2024 07:29 | 915389 | ||
| FTGM4_TS_DEWT_102020.nc | 01-Dec-2024 08:16 | 1626932 | ||
| FTGM4_TS_DEWT_102022.nc | 01-Dec-2024 08:46 | 1476147 | ||
| FTGM4_TS_DEWT_102023.nc | 01-Dec-2024 09:24 | 1476201 | ||
| FTGM4_TS_DEWT_102025.nc | 01-Nov-2025 07:23 | 1475394 | ||
| FTGM4_TS_DEWT_112004.nc | 30-Nov-2024 17:48 | 1154631 | ||
| FTGM4_TS_DEWT_112005.nc | 30-Nov-2024 18:49 | 1476017 | ||
| FTGM4_TS_DEWT_112006.nc | 30-Nov-2024 19:52 | 1476805 | ||
| FTGM4_TS_DEWT_112007.nc | 30-Nov-2024 20:57 | 1476446 | ||
| FTGM4_TS_DEWT_112008.nc | 30-Nov-2024 22:02 | 1477083 | ||
| FTGM4_TS_DEWT_112009.nc | 30-Nov-2024 23:08 | 1476691 | ||
| FTGM4_TS_DEWT_112010.nc | 01-Dec-2024 00:11 | 1474672 | ||
| FTGM4_TS_DEWT_112011.nc | 01-Dec-2024 01:03 | 1471936 | ||
| FTGM4_TS_DEWT_112012.nc | 01-Dec-2024 02:00 | 1477112 | ||
| FTGM4_TS_DEWT_112013.nc | 01-Dec-2024 03:02 | 590944 | ||
| FTGM4_TS_DEWT_112014.nc | 01-Dec-2024 03:51 | 1626666 | ||
| FTGM4_TS_DEWT_112015.nc | 01-Dec-2024 04:37 | 1472706 | ||
| FTGM4_TS_DEWT_112016.nc | 01-Dec-2024 05:24 | 1625210 | ||
| FTGM4_TS_DEWT_112017.nc | 01-Dec-2024 06:10 | 1456803 | ||
| FTGM4_TS_DEWT_112018.nc | 01-Dec-2024 06:44 | 1625282 | ||
| FTGM4_TS_DEWT_112019.nc | 01-Dec-2024 07:33 | 1626064 | ||
| FTGM4_TS_DEWT_112020.nc | 01-Dec-2024 08:19 | 1626748 | ||
| FTGM4_TS_DEWT_112022.nc | 01-Dec-2024 08:49 | 1460007 | ||
| FTGM4_TS_DEWT_112023.nc | 01-Dec-2024 09:27 | 1476522 | ||
| FTGM4_TS_DEWT_112024.nc | 17-Jan-2025 18:30 | 1625045 | ||
| FTGM4_TS_DEWT_112025.nc | 01-Dec-2025 04:50 | 1626937 | ||
| FTGM4_TS_DEWT_122004.nc | 30-Nov-2024 17:52 | 1626755 | ||
| FTGM4_TS_DEWT_122005.nc | 30-Nov-2024 18:54 | 1671882 | ||
| FTGM4_TS_DEWT_122006.nc | 30-Nov-2024 19:57 | 1678101 | ||
| FTGM4_TS_DEWT_122007.nc | 30-Nov-2024 21:02 | 1673808 | ||
| FTGM4_TS_DEWT_122008.nc | 30-Nov-2024 22:09 | 1316572 | ||
| FTGM4_TS_DEWT_122009.nc | 30-Nov-2024 23:13 | 1836397 | ||
| FTGM4_TS_DEWT_122010.nc | 01-Dec-2024 00:17 | 1805693 | ||
| FTGM4_TS_DEWT_122011.nc | 01-Dec-2024 01:07 | 1836944 | ||
| FTGM4_TS_DEWT_122012.nc | 01-Dec-2024 02:05 | 1842176 | ||
| FTGM4_TS_DEWT_122013.nc | 01-Dec-2024 03:06 | 1305838 | ||
| FTGM4_TS_DEWT_122014.nc | 01-Dec-2024 03:55 | 2529458 | ||
| FTGM4_TS_DEWT_122015.nc | 01-Dec-2024 04:41 | 3529280 | ||
| FTGM4_TS_DEWT_122016.nc | 01-Dec-2024 05:28 | 1656376 | ||
| FTGM4_TS_DEWT_122017.nc | 01-Dec-2024 06:13 | 1646009 | ||
| FTGM4_TS_DEWT_122018.nc | 01-Dec-2024 06:48 | 1647198 | ||
| FTGM4_TS_DEWT_122019.nc | 01-Dec-2024 07:38 | 1655466 | ||
| FTGM4_TS_DEWT_122020.nc | 01-Dec-2024 08:23 | 1666329 | ||
| FTGM4_TS_DEWT_122022.nc | 01-Dec-2024 08:51 | 1605177 | ||
| FTGM4_TS_DEWT_122023.nc | 01-Dec-2024 09:30 | 1659364 | ||
| FTGM4_TS_DEWT_122024.nc | 22-Jan-2025 18:49 | 1661514 | ||
| FTGM4_TS_DEWT_122025.nc | 01-Jan-2026 06:13 | 424510 | ||